createdAt,value
2018-07-05T00:02:26.933Z,1.40
2018-07-05T00:05:12.223Z,3.73
2018-07-05T00:07:57.415Z,5.63
2018-07-05T00:10:42.360Z,0.90
2018-07-05T00:13:27.353Z,1.70
2018-07-05T00:16:12.244Z,1.37
2018-07-05T00:18:57.247Z,1.50
2018-07-05T00:21:42.216Z,8.57
2018-07-05T00:24:27.254Z,1.10
2018-07-05T00:27:12.702Z,2.30
2018-07-05T00:29:57.704Z,1.97
2018-07-05T00:32:42.842Z,2.50
2018-07-05T00:35:27.717Z,1.00
2018-07-05T00:38:13.018Z,4.00
2018-07-05T00:40:58.140Z,2.37
2018-07-05T00:43:43.238Z,2.30
2018-07-05T00:46:28.283Z,2.73
2018-07-05T00:49:13.292Z,1.70
2018-07-05T00:51:58.260Z,1.97
2018-07-05T00:54:43.376Z,1.40
2018-07-05T00:57:28.502Z,1.97
2018-07-05T01:00:13.586Z,1.63
2018-07-05T01:02:58.652Z,3.17
2018-07-05T01:05:43.877Z,3.93
2018-07-05T01:08:28.953Z,2.53
2018-07-05T01:11:13.880Z,3.53
2018-07-05T01:13:58.832Z,2.83
2018-07-05T01:16:43.940Z,1.00
2018-07-05T01:19:29.201Z,1.73
2018-07-05T01:22:14.256Z,1.67
2018-07-05T01:24:59.251Z,7.00
2018-07-05T01:27:44.340Z,2.13
2018-07-05T01:30:29.395Z,1.60
2018-07-05T01:33:14.418Z,1.80
2018-07-05T01:35:59.339Z,1.67
2018-07-05T01:38:44.340Z,1.67
2018-07-05T01:41:23.497Z,5.10
2018-07-05T01:44:08.534Z,1.23
2018-07-05T01:46:53.523Z,1.40
2018-07-05T01:49:38.515Z,1.87
2018-07-05T01:52:23.473Z,2.93
2018-07-05T01:55:08.535Z,3.97
2018-07-05T01:57:53.574Z,3.10
2018-07-05T02:00:38.586Z,2.63
2018-07-05T02:03:23.558Z,4.00
2018-07-05T02:06:08.630Z,1.50
2018-07-05T02:08:53.620Z,4.40
2018-07-05T02:11:38.692Z,1.37
2018-07-05T02:14:23.801Z,4.10
2018-07-05T02:17:08.800Z,2.03
2018-07-05T02:19:53.836Z,3.23
2018-07-05T02:22:39.040Z,1.97
2018-07-05T02:25:24.120Z,2.10
2018-07-05T02:28:09.116Z,4.93
2018-07-05T02:30:54.146Z,5.77
2018-07-05T02:33:39.099Z,4.73
2018-07-05T02:36:24.297Z,3.13
2018-07-05T02:40:16.443Z,1.90
2018-07-05T02:43:01.537Z,3.47
2018-07-05T02:45:46.549Z,2.77
2018-07-05T02:48:31.695Z,3.57
2018-07-05T02:51:16.793Z,4.97
2018-07-05T02:54:01.782Z,4.17
2018-07-05T02:56:46.849Z,9.73
2018-07-05T02:59:31.865Z,6.73
2018-07-05T03:02:17.843Z,5.00
2018-07-05T03:05:03.009Z,3.10
2018-07-05T03:07:47.977Z,4.33
2018-07-05T03:10:32.943Z,8.77
2018-07-05T03:13:18.677Z,4.63
2018-07-05T03:16:03.901Z,4.37
2018-07-05T03:18:49.035Z,3.57
2018-07-05T03:21:34.039Z,3.80
2018-07-05T03:24:18.989Z,4.77
2018-07-05T03:27:04.036Z,13.40
2018-07-05T03:29:49.159Z,6.40
2018-07-05T03:32:34.270Z,4.77
2018-07-05T03:35:19.248Z,5.33
2018-07-05T03:38:04.474Z,5.53
2018-07-05T03:40:49.562Z,6.47
2018-07-05T03:43:34.647Z,8.97
2018-07-05T03:46:19.659Z,7.97
2018-07-05T03:49:04.589Z,7.07
2018-07-05T03:51:49.718Z,14.00
2018-07-05T03:54:34.791Z,10.13
2018-07-05T03:57:20.066Z,8.33
2018-07-05T04:00:05.142Z,11.77
2018-07-05T04:02:50.380Z,9.07
2018-07-05T04:05:35.444Z,8.03
2018-07-05T04:08:20.361Z,11.23
2018-07-05T04:11:05.435Z,7.07
2018-07-05T04:13:50.626Z,10.20
2018-07-05T04:16:35.736Z,16.50
2018-07-05T04:19:20.651Z,5.73
2018-07-05T04:22:05.903Z,8.67
2018-07-05T04:24:50.938Z,8.37
2018-07-05T04:27:35.937Z,9.97
2018-07-05T04:30:20.880Z,10.37
2018-07-05T04:33:06.237Z,10.70
2018-07-05T04:35:51.432Z,6.50
2018-07-05T04:38:36.349Z,7.47
2018-07-05T04:41:21.497Z,8.23
2018-07-05T04:44:06.703Z,7.87
2018-07-05T04:46:51.767Z,8.73
2018-07-05T04:49:36.943Z,11.23
2018-07-05T04:52:22.040Z,9.30
2018-07-05T04:55:07.116Z,10.33
2018-07-05T04:57:52.118Z,6.93
2018-07-05T05:00:37.286Z,12.20
2018-07-05T05:03:22.227Z,9.30
2018-07-05T05:06:07.230Z,8.43
2018-07-05T05:08:52.304Z,11.03
2018-07-05T05:11:37.318Z,15.43
2018-07-05T05:14:22.333Z,8.13
2018-07-05T05:17:07.319Z,12.00
2018-07-05T05:19:52.455Z,6.63
2018-07-05T05:22:37.525Z,4.40
2018-07-05T05:25:22.477Z,8.03
2018-07-05T05:28:07.470Z,9.97
2018-07-05T05:30:52.503Z,14.10
2018-07-05T05:33:37.526Z,12.47
2018-07-05T05:36:22.664Z,8.97
2018-07-05T05:39:07.652Z,6.63
2018-07-05T05:41:52.717Z,6.93
2018-07-05T05:44:37.805Z,13.37
2018-07-05T05:47:23.028Z,7.17
2018-07-05T05:50:08.142Z,12.40
2018-07-05T05:52:53.163Z,9.97
2018-07-05T05:55:38.111Z,10.40
2018-07-05T05:58:23.125Z,8.53
2018-07-05T06:01:08.074Z,10.53
2018-07-05T06:03:53.184Z,10.27
2018-07-05T06:06:38.488Z,9.90
2018-07-05T06:09:23.589Z,10.50
2018-07-05T06:12:08.556Z,17.80
2018-07-05T06:14:53.490Z,17.33
2018-07-05T06:17:38.496Z,12.67
2018-07-05T06:20:23.490Z,16.13
2018-07-05T06:23:08.472Z,15.37
2018-07-05T06:25:53.581Z,15.50
2018-07-05T06:28:38.818Z,21.10
2018-07-05T06:31:23.846Z,22.10
2018-07-05T06:34:08.901Z,17.97
2018-07-05T06:36:53.858Z,16.20
2018-07-05T06:39:39.126Z,23.70
2018-07-05T06:42:24.206Z,17.43
2018-07-05T06:45:09.357Z,15.17
2018-07-05T06:47:54.487Z,16.30
2018-07-05T06:50:39.534Z,11.40
2018-07-05T06:53:24.648Z,13.47
2018-07-05T06:56:09.811Z,13.40
2018-07-05T06:58:54.927Z,24.30
2018-07-05T07:01:40.088Z,10.73
2018-07-05T07:04:25.210Z,16.33
2018-07-05T07:07:10.298Z,24.10
2018-07-05T07:09:55.802Z,15.13
2018-07-05T07:12:40.890Z,13.87
2018-07-05T07:15:25.867Z,12.23
2018-07-05T07:18:10.908Z,22.87
2018-07-05T07:20:55.844Z,18.00
2018-07-05T07:23:40.815Z,13.07
2018-07-05T07:26:25.817Z,23.53
2018-07-05T07:29:10.845Z,10.53
2018-07-05T07:31:56.046Z,12.50
2018-07-05T07:34:40.909Z,15.13
2018-07-05T07:37:25.959Z,13.03
2018-07-05T07:40:05.268Z,9.50
2018-07-05T07:42:37.817Z,12.23
2018-07-05T07:45:04.315Z,13.13
2018-07-05T07:47:30.813Z,13.77
2018-07-05T07:49:57.304Z,11.53
2018-07-05T07:52:23.789Z,17.63
2018-07-05T07:54:50.257Z,10.77
2018-07-05T07:57:16.739Z,9.37
2018-07-05T07:59:43.248Z,8.83
2018-07-05T08:02:09.722Z,14.07
2018-07-05T08:04:36.211Z,9.67
2018-07-05T08:07:02.823Z,14.13
2018-07-05T08:09:29.319Z,11.63
2018-07-05T08:11:55.797Z,12.67
2018-07-05T08:14:22.289Z,13.90
2018-07-05T08:16:48.831Z,16.80
2018-07-05T08:19:15.418Z,15.23
2018-07-05T08:21:41.917Z,18.23
2018-07-05T08:24:08.427Z,18.33
2018-07-05T08:26:35.117Z,11.47
2018-07-05T08:29:01.661Z,12.63
2018-07-05T08:31:28.228Z,10.07
2018-07-05T08:33:54.679Z,10.40
2018-07-05T08:36:21.146Z,8.63
2018-07-05T08:38:47.627Z,7.53
2018-07-05T08:41:14.150Z,10.93
2018-07-05T08:43:40.673Z,9.63
2018-07-05T08:46:07.360Z,21.17
2018-07-05T08:48:33.876Z,12.93
2018-07-05T08:51:00.358Z,10.80
2018-07-05T08:53:26.830Z,10.17
2018-07-05T08:55:53.328Z,13.80
2018-07-05T08:58:19.907Z,11.20
2018-07-05T09:00:46.329Z,14.07
2018-07-05T09:03:12.808Z,12.73
2018-07-05T09:05:39.349Z,16.07
2018-07-05T09:08:05.830Z,12.90
2018-07-05T09:10:32.802Z,14.53
2018-07-05T09:12:59.330Z,8.10
2018-07-05T09:15:25.864Z,10.43
2018-07-05T09:17:52.541Z,10.57
2018-07-05T09:20:19.320Z,12.07
2018-07-05T09:22:45.824Z,7.17
2018-07-05T09:25:12.312Z,10.17
2018-07-05T09:27:38.809Z,5.30
2018-07-05T09:30:05.333Z,6.53
2018-07-05T09:32:31.797Z,6.83
2018-07-05T09:34:58.270Z,8.77
2018-07-05T09:37:24.851Z,7.97
2018-07-05T09:39:51.261Z,8.47
2018-07-05T09:42:17.757Z,3.13
2018-07-05T09:44:44.272Z,6.47
2018-07-05T09:47:10.756Z,7.27
2018-07-05T09:49:37.244Z,7.10
2018-07-05T09:52:03.694Z,7.90
2018-07-05T09:54:30.194Z,5.33
2018-07-05T09:56:56.672Z,3.87
2018-07-05T09:59:23.145Z,13.97
2018-07-05T10:01:49.664Z,5.47
2018-07-05T10:04:16.142Z,5.90
2018-07-05T10:06:42.628Z,8.83
2018-07-05T10:09:09.128Z,6.83
2018-07-05T10:11:35.611Z,10.03
2018-07-05T10:14:02.093Z,5.57
2018-07-05T10:16:28.696Z,5.33
2018-07-05T10:18:55.199Z,10.77
2018-07-05T10:21:21.736Z,8.17
2018-07-05T10:23:48.334Z,3.17
2018-07-05T10:26:14.840Z,14.10
2018-07-05T10:28:54.040Z,4.37
2018-07-05T10:31:39.424Z,5.80
2018-07-05T10:34:12.142Z,10.43
2018-07-05T10:36:38.648Z,3.70
2018-07-05T10:39:05.137Z,3.93
2018-07-05T10:41:43.998Z,14.67
2018-07-05T10:44:29.264Z,7.77
2018-07-05T10:47:14.440Z,3.20
2018-07-05T10:49:59.469Z,4.83
2018-07-05T10:52:44.386Z,6.77
2018-07-05T10:55:29.321Z,6.63
2018-07-05T10:58:14.396Z,8.53
2018-07-05T11:00:59.281Z,3.50
2018-07-05T11:03:44.294Z,3.77
2018-07-05T11:06:29.246Z,3.47
2018-07-05T11:09:14.304Z,5.23
2018-07-05T11:11:59.343Z,6.43
2018-07-05T11:14:44.477Z,7.80
2018-07-05T11:17:29.587Z,5.95
2018-07-05T11:20:14.571Z,5.47
2018-07-05T11:22:59.595Z,7.42
2018-07-05T11:25:44.587Z,6.78
2018-07-05T11:28:29.777Z,12.33
2018-07-05T11:31:14.740Z,4.58
2018-07-05T11:33:54.194Z,5.83
2018-07-05T11:36:39.337Z,6.08
2018-07-05T11:39:24.218Z,9.53
2018-07-05T11:42:09.217Z,5.95
2018-07-05T11:44:54.643Z,4.83
2018-07-05T11:47:39.713Z,4.97
2018-07-05T11:50:24.597Z,5.22
2018-07-05T11:53:09.613Z,5.65
2018-07-05T11:55:54.569Z,5.55
2018-07-05T11:58:39.602Z,4.60
2018-07-05T12:01:24.757Z,5.17
2018-07-05T12:04:09.771Z,3.92
2018-07-05T12:06:54.684Z,3.37
2018-07-05T12:09:39.854Z,3.12
2018-07-05T12:12:24.795Z,10.78
2018-07-05T12:15:09.827Z,5.60
2018-07-05T12:17:54.824Z,9.43
2018-07-05T12:20:40.025Z,3.52
2018-07-05T12:23:25.259Z,4.12
2018-07-05T12:26:10.272Z,3.12
2018-07-05T12:28:55.260Z,7.97
2018-07-05T12:31:40.306Z,2.67
2018-07-05T12:34:25.355Z,3.58
2018-07-05T12:37:10.499Z,4.05
2018-07-05T12:39:55.701Z,5.62
2018-07-05T12:42:40.700Z,3.20
2018-07-05T12:45:26.029Z,5.33
2018-07-05T12:48:10.982Z,2.30
2018-07-05T12:50:56.037Z,3.47
2018-07-05T12:53:41.214Z,3.52
2018-07-05T12:56:26.345Z,4.78
2018-07-05T12:59:11.397Z,2.40
2018-07-05T13:01:56.365Z,2.92
2018-07-05T13:04:41.353Z,2.87
2018-07-05T13:07:26.562Z,3.80
2018-07-05T13:10:11.806Z,2.65
2018-07-05T13:12:56.892Z,3.42
2018-07-05T13:15:41.975Z,6.58
2018-07-05T13:18:27.141Z,3.87
2018-07-05T13:21:12.250Z,4.22
2018-07-05T13:23:57.228Z,12.23
2018-07-05T13:26:42.220Z,4.35
2018-07-05T13:29:27.282Z,3.17
2018-07-05T13:32:12.246Z,2.87
2018-07-05T13:34:57.340Z,3.22
2018-07-05T13:37:42.663Z,4.75
2018-07-05T13:40:27.861Z,5.08
2018-07-05T13:43:13.185Z,7.45
2018-07-05T13:45:58.447Z,5.72
2018-07-05T13:48:43.512Z,2.35
2018-07-05T13:51:28.420Z,4.42
2018-07-05T13:54:13.415Z,4.80
2018-07-05T13:56:58.540Z,5.05
2018-07-05T13:59:37.762Z,2.20
2018-07-05T14:02:22.803Z,6.70
2018-07-05T14:05:07.826Z,7.45
2018-07-05T14:07:53.181Z,2.10
2018-07-05T14:10:38.286Z,2.75
2018-07-05T14:13:23.330Z,4.53
2018-07-05T14:16:08.357Z,1.87
2018-07-05T14:18:53.536Z,4.20
2018-07-05T14:21:38.664Z,1.57
2018-07-05T14:24:23.714Z,3.70
2018-07-05T14:27:08.718Z,2.70
2018-07-05T14:29:53.702Z,3.60
2018-07-05T14:32:38.635Z,2.92
2018-07-05T14:35:23.742Z,3.08
2018-07-05T14:38:08.804Z,2.65
2018-07-05T14:40:53.726Z,4.55
2018-07-05T14:43:39.054Z,3.10
2018-07-05T14:46:24.314Z,4.40
2018-07-05T14:49:09.400Z,5.00
2018-07-05T14:51:54.396Z,4.15
2018-07-05T14:54:39.386Z,2.72
2018-07-05T14:57:24.422Z,1.57
2018-07-05T15:00:09.401Z,4.60
2018-07-05T15:02:54.940Z,5.92
2018-07-05T15:05:40.039Z,1.75
2018-07-05T15:08:25.124Z,1.30
2018-07-05T15:11:10.161Z,2.27
2018-07-05T15:13:55.192Z,2.58
2018-07-05T15:16:40.522Z,1.77
2018-07-05T15:19:25.524Z,3.80
2018-07-05T15:22:10.553Z,3.37
2018-07-05T15:24:55.677Z,2.30
2018-07-05T15:27:40.729Z,2.08
2018-07-05T15:30:25.737Z,2.72
2018-07-05T15:33:10.715Z,1.98
2018-07-05T15:35:55.713Z,1.77
2018-07-05T15:38:40.815Z,1.62
2018-07-05T15:41:25.881Z,3.72
2018-07-05T15:44:10.896Z,2.58
2018-07-05T15:46:55.935Z,5.10
2018-07-05T15:49:40.957Z,2.98
2018-07-05T15:52:26.035Z,4.42
2018-07-05T15:55:11.154Z,2.17
2018-07-05T15:57:56.547Z,1.95
2018-07-05T16:00:41.625Z,1.62
2018-07-05T16:03:26.629Z,4.90
2018-07-05T16:06:11.769Z,4.70
2018-07-05T16:08:50.922Z,2.17
2018-07-05T16:11:36.028Z,2.05
2018-07-05T16:14:21.871Z,1.50
2018-07-05T16:17:07.087Z,7.12
2018-07-05T16:19:52.077Z,1.40
2018-07-05T16:22:37.180Z,4.17
2018-07-05T16:25:22.423Z,4.22
2018-07-05T16:28:07.486Z,2.95
2018-07-05T16:30:52.525Z,3.08
2018-07-05T16:33:37.640Z,2.30
2018-07-05T16:36:22.789Z,5.72
2018-07-05T16:39:07.832Z,1.80
2018-07-05T16:41:52.908Z,6.12
2018-07-05T16:44:37.923Z,1.55
2018-07-05T16:47:22.783Z,2.90
2018-07-05T16:50:07.702Z,3.45
2018-07-05T16:52:52.565Z,4.12
2018-07-05T16:55:37.585Z,1.67
2018-07-05T16:58:22.732Z,2.42
2018-07-05T17:01:07.759Z,2.62
2018-07-05T17:03:52.729Z,2.83
2018-07-05T17:06:37.999Z,2.27
2018-07-05T17:09:23.135Z,3.45
2018-07-05T17:12:08.160Z,1.40
2018-07-05T17:14:53.456Z,2.15
2018-07-05T17:17:38.553Z,3.20
2018-07-05T17:20:23.561Z,3.00
2018-07-05T17:23:08.674Z,5.97
2018-07-05T17:25:53.721Z,3.25
2018-07-05T17:28:38.998Z,3.55
2018-07-05T17:31:23.989Z,7.25
2018-07-05T17:34:08.983Z,1.20
2018-07-05T17:36:53.993Z,2.92
2018-07-05T17:39:39.065Z,1.77
2018-07-05T17:42:24.121Z,3.42
2018-07-05T17:45:09.180Z,2.77
2018-07-05T17:47:54.193Z,1.55
2018-07-05T17:50:39.321Z,4.22
2018-07-05T17:53:24.393Z,1.40
2018-07-05T17:56:09.362Z,2.17
2018-07-05T17:58:54.675Z,1.40
2018-07-05T18:01:39.847Z,1.40
2018-07-05T18:04:25.212Z,1.42
2018-07-05T18:07:10.371Z,1.50
2018-07-05T18:09:55.623Z,3.35
2018-07-05T18:12:40.843Z,2.12
2018-07-05T18:15:26.090Z,6.33
2018-07-05T18:18:11.073Z,2.15
2018-07-05T18:20:56.231Z,1.75
2018-07-05T18:23:41.237Z,3.45
2018-07-05T18:26:26.227Z,1.57
2018-07-05T18:29:11.119Z,3.02
2018-07-05T18:31:56.205Z,3.52
2018-07-05T18:34:41.602Z,3.75
2018-07-05T18:37:26.771Z,2.90
2018-07-05T18:40:11.863Z,2.90
2018-07-05T18:42:56.945Z,2.33
2018-07-05T18:45:41.893Z,3.77
2018-07-05T18:48:27.049Z,2.02
2018-07-05T18:51:12.022Z,3.33
2018-07-05T18:53:57.106Z,7.57
2018-07-05T18:56:42.193Z,3.72
2018-07-05T18:59:27.338Z,1.27
2018-07-05T19:02:12.310Z,1.40
2018-07-05T19:04:57.304Z,2.30
2018-07-05T19:07:42.375Z,2.20
2018-07-05T19:10:27.313Z,1.07
2018-07-05T19:13:12.248Z,2.57
2018-07-05T19:15:57.267Z,1.90
2018-07-05T19:18:42.491Z,1.37
2018-07-05T19:21:27.441Z,4.40
2018-07-05T19:24:12.592Z,2.10
2018-07-05T19:26:57.582Z,0.47
2018-07-05T19:29:42.601Z,1.00
2018-07-05T19:32:27.729Z,1.40
2018-07-05T19:35:12.849Z,1.40
2018-07-05T19:37:57.932Z,1.20
2018-07-05T19:40:42.903Z,2.63
2018-07-05T19:43:27.881Z,1.43
2018-07-05T19:46:13.036Z,0.60
2018-07-05T19:48:58.124Z,6.43
2018-07-05T19:51:43.204Z,0.50
2018-07-05T19:54:28.350Z,0.83
2018-07-05T19:57:07.594Z,1.13
2018-07-05T19:59:52.704Z,0.87
2018-07-05T20:02:37.899Z,2.27
2018-07-05T20:05:22.920Z,2.67
2018-07-05T20:08:07.884Z,3.33
2018-07-05T20:11:00.524Z,6.53
2018-07-05T20:13:45.726Z,1.30
2018-07-05T20:16:30.704Z,0.57
2018-07-05T20:19:09.884Z,0.50
2018-07-05T20:21:55.090Z,0.60
2018-07-05T20:24:40.600Z,3.93
2018-07-05T20:27:25.739Z,0.50
2018-07-05T20:30:10.818Z,1.03
2018-07-05T20:32:56.087Z,0.97
2018-07-05T20:35:41.535Z,0.67
2018-07-05T20:38:26.624Z,1.83
2018-07-05T20:41:05.834Z,0.70
2018-07-05T20:43:51.068Z,1.03
2018-07-05T20:46:36.216Z,2.50
2018-07-05T20:49:21.384Z,0.93
2018-07-05T20:52:06.406Z,1.03
2018-07-05T20:54:52.260Z,2.10
2018-07-05T20:57:37.703Z,2.67
2018-07-05T21:00:23.133Z,3.73
2018-07-05T21:03:08.367Z,1.20
2018-07-05T21:05:53.666Z,0.73
2018-07-05T21:08:39.040Z,5.57
2018-07-05T21:11:24.056Z,1.17
2018-07-05T21:14:03.272Z,5.57
2018-07-05T21:16:42.572Z,1.33
2018-07-05T21:19:27.753Z,1.57
2018-07-05T21:22:12.790Z,4.13
2018-07-05T21:24:57.948Z,4.33
2018-07-05T21:27:42.987Z,6.60
2018-07-05T21:30:28.118Z,1.33
2018-07-05T21:33:13.212Z,1.83
2018-07-05T21:35:58.551Z,2.73
2018-07-05T21:38:43.610Z,1.30
2018-07-05T21:41:28.678Z,2.00
2018-07-05T21:44:13.880Z,2.00
2018-07-05T21:46:59.579Z,2.03
2018-07-05T21:49:44.873Z,2.40
2018-07-05T21:52:30.142Z,1.93
2018-07-05T21:55:15.201Z,1.67
2018-07-05T21:58:00.452Z,1.83
2018-07-05T22:00:45.646Z,1.83
2018-07-05T22:03:24.794Z,2.13
2018-07-05T22:06:09.755Z,1.50
2018-07-05T22:08:54.852Z,1.30
2018-07-05T22:11:39.841Z,1.97
2018-07-05T22:14:24.831Z,1.27
2018-07-05T22:17:15.813Z,4.30
2018-07-05T22:20:06.616Z,1.63
2018-07-05T22:22:57.347Z,2.43
2018-07-05T22:25:48.012Z,2.67
2018-07-05T22:28:38.674Z,1.27
2018-07-05T22:31:29.318Z,1.90
2018-07-05T22:34:14.333Z,0.93
2018-07-05T22:36:59.481Z,2.33
2018-07-05T22:39:44.426Z,1.53
2018-07-05T22:42:29.400Z,1.33
2018-07-05T22:45:14.453Z,2.73
2018-07-05T22:47:59.658Z,1.70
2018-07-05T22:50:44.795Z,1.47
2018-07-05T22:53:29.820Z,2.93
2018-07-05T22:56:14.869Z,2.30
2018-07-05T22:58:59.867Z,1.50
2018-07-05T23:01:44.863Z,1.50
2018-07-05T23:04:29.809Z,2.03
2018-07-05T23:07:14.835Z,1.73
2018-07-05T23:09:59.829Z,14.53
2018-07-05T23:12:39.043Z,1.50
2018-07-05T23:15:24.095Z,2.10
2018-07-05T23:18:09.365Z,1.73
2018-07-05T23:20:54.424Z,5.00
2018-07-05T23:23:39.486Z,6.73
2018-07-05T23:26:24.509Z,2.93
2018-07-05T23:29:09.695Z,2.87
2018-07-05T23:31:54.595Z,1.63
2018-07-05T23:34:39.556Z,2.23
2018-07-05T23:37:24.567Z,3.67
2018-07-05T23:40:09.690Z,3.33
2018-07-05T23:42:54.737Z,6.73
2018-07-05T23:45:39.773Z,3.07
2018-07-05T23:48:24.700Z,2.70
2018-07-05T23:51:09.641Z,5.67
2018-07-05T23:53:54.601Z,1.90
2018-07-05T23:56:39.652Z,2.67
2018-07-05T23:59:25.219Z,2.53
